Latest Weather Observations for Flinders Island Airport

IDT60801

Issued at 9:32 pm EDT Monday 16 January 2017 (issued every 30 minutes, with the page automatically refreshed every 10 minutes)

About weather observations | Map of weather stations | Latest weather observations for TAS | Other Formats
Station Details ID: 099005 Name: FLINDERS ISLAND AIRPORT Lat: -40.09 Lon: 148.00 Height: 9.0 m
Data from the previous 72 hours. | See also: Recent months at Flinders Island Airport
Date/Time
EDT
Temp
°C
App
Temp
°C
Dew
Point
°C
Rel
Hum
%
Delta-T
°C
Wind Press
QNH
hPa
Press
MSL
hPa
Rain since
9am
mm
Dir  Spd
km/h
Gust
km/h
Spd
kts
Gust
kts
16/09:30pm 15.1 14.0 11.9 81 1.7 NNW 9 13 5 7 1011.2 1011.2 0.0
16/09:00pm 15.5 14.9 11.7 78 2.1 NW 6 11 3 6 1011.3 1011.3 0.0
16/08:30pm 16.3 14.4 11.9 75 2.4 WNW 13 17 7 9 1011.4 1011.4 0.0
16/08:00pm 17.2 14.7 12.3 73 2.7 WNW 17 20 9 11 1011.1 1011.1 0.0
16/07:30pm 17.2 14.6 12.1 72 2.8 WNW 17 24 9 13 1011.2 1011.2 0.0
16/07:00pm 17.9 14.8 12.1 69 3.2 WNW 20 28 11 15 1011.3 1011.3 0.0
16/06:30pm 17.9 14.7 11.9 68 3.3 W 20 28 11 15 1011.3 1011.3 0.0
16/06:00pm 18.2 14.6 11.7 66 3.6 W 22 30 12 16 1011.5 1011.5 0.0
16/05:30pm 18.4 14.4 11.7 65 3.7 W 24 32 13 17 1011.8 1011.8 0.0
16/05:00pm 18.4 14.4 11.7 65 3.7 WNW 24 30 13 16 1012.0 1012.0 0.0
16/04:30pm 19.0 14.1 11.3 61 4.2 W 28 35 15 19 1012.2 1012.2 0.0
16/04:00pm 18.5 13.5 11.1 62 4.0 W 28 33 15 18 1012.5 1012.5 0.0
16/03:30pm 18.7 13.7 11.0 61 4.2 W 28 35 15 19 1012.8 1012.8 0.0
16/03:00pm 18.9 14.1 11.7 63 4.0 W 28 37 15 20 1013.0 1013.0 0.0
16/02:30pm 19.0 14.6 11.8 63 4.0 W 26 35 14 19 1013.1 1013.1 0.0
16/02:00pm 19.2 14.3 11.3 60 4.3 WNW 28 35 15 19 1013.6 1013.6 0.0
16/01:30pm 18.8 13.8 10.9 60 4.3 W 28 37 15 20 1013.4 1013.4 0.0
16/01:00pm 19.3 14.5 11.6 61 4.2 W 28 35 15 19 1013.8 1013.8 0.0
16/12:30pm 18.6 13.3 11.2 62 4.0 W 30 37 16 20 1013.9 1013.9 0.0
16/12:00pm 18.3 13.3 11.1 63 3.9 WNW 28 35 15 19 1014.1 1014.1 0.0
16/11:30am 17.7 12.3 11.0 65 3.6 W 30 37 16 20 1014.3 1014.3 0.0
16/11:00am 17.4 12.0 10.8 65 3.5 W 30 35 16 19 1014.3 1014.3 0.0
16/10:30am 17.5 11.6 10.6 64 3.7 W 32 41 17 22 1014.6 1014.6 0.0
16/10:00am 16.9 11.8 10.7 67 3.3 W 28 39 15 21 1014.7 1014.7 0.0
16/09:30am 16.7 11.5 10.3 66 3.4 W 28 35 15 19 1014.8 1014.8 0.0
16/09:00am 16.2 11.1 10.5 69 3.0 W 28 39 15 21 1014.9 1014.9 0.0
16/08:30am 16.1 10.8 11.3 73 2.6 W 30 37 16 20 1014.9 1014.9 0.0
16/08:00am 15.8 10.8 10.8 72 2.7 W 28 35 15 19 1014.7 1014.7 0.0
16/07:30am 15.8 9.8 10.1 69 3.0 W 32 39 17 21 1014.5 1014.5 0.0
16/07:00am 15.7 9.7 10.0 69 3.0 W 32 43 17 23 1014.1 1014.1 0.0
16/06:30am 15.5 9.4 9.8 69 3.0 WNW 32 39 17 21 1014.0 1014.0 0.0
16/06:00am 15.5 9.6 10.3 71 2.7 W 32 37 17 20 1013.6 1013.6 0.0
16/05:30am 15.4 9.2 10.2 71 2.7 W 33 41 18 22 1013.4 1013.4 0.0
16/05:00am 15.3 8.4 10.3 72 2.6 W 37 44 20 24 1013.4 1013.4 0.0
16/04:30am 15.3 8.8 10.3 72 2.6 W 35 43 19 23 1013.1 1013.1 0.0
16/04:00am 15.1 8.0 9.7 70 2.8 W 37 48 20 26 1013.1 1013.1 0.0
16/03:30am 15.2 8.2 9.8 70 2.8 W 37 52 20 28 1013.4 1013.4 0.0
16/03:00am 15.3 8.7 10.1 71 2.7 W 35 48 19 26 1013.5 1013.5 0.0
16/02:30am 15.5 8.6 10.3 71 2.7 W 37 43 20 23 1013.8 1013.8 0.0
16/02:00am 15.5 8.5 10.1 70 2.8 WSW 37 44 20 24 1014.1 1014.1 0.0
16/01:30am 15.4 8.8 10.0 70 2.8 W 35 50 19 27 1014.2 1014.2 0.0
16/01:00am 15.4 8.8 10.0 70 2.8 W 35 46 19 25 1014.5 1014.5 0.0
16/12:30am 15.4 9.2 10.0 70 2.8 W 33 41 18 22 1014.8 1014.8 0.0
16/12:00am 15.4 8.5 10.2 71 2.7 W 37 46 20 25 1014.9 1014.9 0.0
 
Date/Time
EDT
Temp
°C
App
Temp
°C
Dew
Point
°C
Rel
Hum
%
Delta-T
°C
Wind Press
QNH
hPa
Press
MSL
hPa
Rain since
9am
mm
Dir  Spd
km/h
Gust
km/h
Spd
kts
Gust
kts
15/11:30pm 15.6 9.2 10.8 73 2.5 W 35 41 19 22 1015.0 1015.0 0.0
15/11:00pm 15.5 8.7 10.7 73 2.5 W 37 50 20 27 1015.1 1015.1 0.0
15/10:30pm 15.6 9.2 10.8 73 2.5 W 35 41 19 22 1015.3 1015.3 0.0
15/10:00pm 15.8 10.0 10.8 72 2.7 W 32 41 17 22 1015.3 1015.3 0.0
15/09:30pm 15.6 9.7 10.6 72 2.6 W 32 41 17 22 1015.1 1015.1 0.0
15/09:00pm 15.6 9.4 10.2 70 2.8 W 33 43 18 23 1015.0 1015.0 0.0
15/08:30pm 15.8 8.9 10.3 70 2.9 W 37 50 20 27 1015.1 1015.1 0.0
15/08:00pm 16.3 9.5 10.6 69 3.0 W 37 48 20 26 1015.0 1015.0 0.0
15/07:30pm 16.4 9.4 10.0 66 3.4 W 37 48 20 26 1014.8 1014.8 0.0
15/07:00pm 16.7 8.7 10.5 67 3.3 W 43 54 23 29 1014.5 1014.5 0.0
15/06:30pm 17.1 9.0 10.7 66 3.4 W 44 54 24 29 1014.5 1014.5 0.0
15/06:00pm 17.1 9.3 9.8 62 3.8 W 41 50 22 27 1014.6 1014.6 0.0
15/05:30pm 16.9 8.7 10.3 65 3.5 W 44 56 24 30 1014.9 1014.9 0.0
15/05:00pm 17.1 9.0 10.2 64 3.7 W 43 54 23 29 1014.8 1014.8 0.0
15/04:30pm 17.4 9.2 10.5 64 3.7 W 44 54 24 29 1014.9 1014.9 0.0
15/04:00pm 17.4 10.1 10.1 62 3.9 W 39 52 21 28 1015.2 1015.2 0.0
15/03:30pm 17.3 9.0 9.5 60 4.1 W 43 54 23 29 1015.5 1015.5 0.0
15/03:00pm 17.6 9.3 9.5 59 4.2 W 43 52 23 28 1015.5 1015.5 0.0
15/02:30pm 18.2 9.9 9.3 56 4.7 W 43 54 23 29 1015.5 1015.5 0.0
15/02:00pm 17.5 9.6 9.2 58 4.3 W 41 50 22 27 1015.7 1015.7 0.0
15/01:30pm 18.1 9.7 8.9 55 4.8 W 43 50 23 27 1015.6 1015.6 0.0
15/01:00pm 17.3 9.6 8.7 57 4.4 W 39 48 21 26 1015.8 1015.8 0.0
15/12:30pm 17.6 9.4 8.2 54 4.8 WSW 41 56 22 30 1015.8 1015.8 0.0
15/12:00pm 16.7 9.1 8.9 60 4.0 W 39 50 21 27 1015.9 1015.9 0.0
15/11:30am 16.6 8.8 8.1 57 4.3 W 39 48 21 26 1015.7 1015.7 0.0
15/11:00am 16.6 8.8 8.3 58 4.2 W 39 52 21 28 1015.6 1015.6 0.0
15/10:30am 16.4 7.7 7.9 57 4.3 WSW 43 50 23 27 1015.4 1015.4 0.0
15/10:00am 16.5 7.8 8.5 59 4.1 WSW 44 52 24 28 1015.3 1015.3 0.0
15/09:30am 15.9 8.2 8.6 62 3.7 WSW 39 54 21 29 1015.3 1015.3 0.0
15/09:00am 15.6 7.4 8.4 62 3.6 W 41 52 22 28 1015.0 1015.0 0.2
15/08:30am 15.3 7.1 8.1 62 3.6 W 41 54 22 29 1014.7 1014.7 0.2
15/08:00am 15.6 7.1 8.4 62 3.6 WSW 43 52 23 28 1014.5 1014.5 0.2
15/07:30am 14.7 6.5 8.2 65 3.3 W 41 52 22 28 1014.0 1014.0 0.2
15/07:00am 14.6 6.4 8.1 65 3.2 WSW 41 50 22 27 1013.7 1013.7 0.2
15/06:30am 14.2 6.3 7.7 65 3.2 WSW 39 48 21 26 1013.5 1013.5 0.2
15/06:00am 14.0 5.0 7.1 63 3.4 WSW 44 54 24 29 1012.9 1012.9 0.2
15/05:30am 14.2 5.5 7.7 65 3.2 WSW 43 54 23 29 1012.6 1012.6 0.2
15/05:00am 14.5 6.3 8.2 66 3.2 WSW 41 50 22 27 1012.1 1012.1 0.2
15/04:30am 14.1 4.0 7.2 63 3.4 WSW 50 61 27 33 1011.6 1011.6 0.2
15/04:00am 14.3 4.6 7.6 64 3.3 WSW 48 57 26 31 1011.5 1011.5 0.2
15/03:30am 14.3 4.6 7.6 64 3.3 W 48 59 26 32 1011.2 1011.2 0.2
15/03:00am 14.3 4.2 7.6 64 3.3 WSW 50 61 27 33 1011.2 1011.2 0.2
15/02:30am 14.3 3.4 7.1 62 3.5 WSW 54 69 29 37 1011.1 1011.1 0.2
15/02:00am 14.3 3.3 6.9 61 3.6 WSW 54 63 29 34 1010.8 1010.8 0.2
15/01:30am 14.3 3.4 7.1 62 3.5 WSW 54 69 29 37 1011.2 1011.2 0.2
15/01:00am 14.4 4.2 7.0 61 3.6 WSW 50 61 27 33 1011.1 1011.1 0.2
15/12:30am 14.7 3.9 7.5 62 3.6 WSW 54 65 29 35 1010.9 1010.9 0.2
15/12:00am 14.7 3.9 7.7 63 3.5 WSW 54 69 29 37 1010.3 1010.3 0.2
 
Date/Time
EDT
Temp
°C
App
Temp
°C
Dew
Point
°C
Rel
Hum
%
Delta-T
°C
Wind Press
QNH
hPa
Press
MSL
hPa
Rain since
9am
mm
Dir  Spd
km/h
Gust
km/h
Spd
kts
Gust
kts
14/11:30pm 15.0 4.0 8.5 65 3.3 W 56 69 30 37 1009.8 1009.8 0.2
14/11:00pm 15.1 4.3 7.6 61 3.7 WSW 54 70 29 38 1010.1 1010.1 0.2
14/10:30pm 15.0 3.5 7.3 60 3.8 WSW 57 72 31 39 1009.6 1009.6 0.2
14/10:07pm 15.3 4.6 8.1 62 3.6 W 54 72 29 39 1009.1 1009.1 0.2
14/10:00pm 15.2 4.0 7.7 61 3.7 W 56 70 30 38 1009.0 1009.0 0.2
14/09:30pm 15.5 3.8 7.8 60 3.8 W 59 74 32 40 1008.2 1008.2 0.2
14/09:00pm 15.6 3.5 7.6 59 4.0 WSW 61 82 33 44 1007.9 1007.9 0.2
14/08:32pm 15.7 4.5 8.2 61 3.8 WSW 57 76 31 41 1007.5 1007.5 0.2
14/08:30pm 15.8 4.0 7.6 58 4.1 W 59 76 32 41 1007.3 1007.3 0.2
14/08:00pm 16.6 5.8 10.0 65 3.5 W 57 80 31 43 1006.2 1006.2 0.2
14/07:31pm 16.8 5.5 9.5 62 3.8 W 59 78 32 42 1006.0 1006.0 0.2
14/07:30pm 16.8 5.5 9.5 62 3.8 W 59 72 32 39 1006.0 1006.0 0.2
14/07:00pm 17.1 4.4 10.0 63 3.8 W 67 83 36 45 1005.4 1005.4 0.2
14/06:51pm 17.0 5.2 10.6 66 3.4 W 63 83 34 45 1005.2 1005.2 0.2
14/06:30pm 17.1 6.6 12.2 73 2.7 W 59 76 32 41 1005.0 1005.0 0.2
14/06:00pm 16.9 6.8 12.2 74 2.6 W 57 72 31 39 1004.5 1004.5 0.2
14/05:33pm 17.7 7.7 12.2 70 3.0 W 56 74 30 40 1004.3 1004.3 0.2
14/05:30pm 17.5 7.4 12.2 71 2.9 W 57 74 31 40 1004.2 1004.2 0.2
14/05:00pm 18.1 8.0 12.3 69 3.2 W 57 78 31 42 1003.7 1003.7 0.0
14/04:35pm 18.4 8.2 11.9 66 3.6 W 57 76 31 41 1003.4 1003.4 0.0
14/04:30pm 19.1 7.8 12.1 64 3.9 W 63 76 34 41 1003.3 1003.3 0.0
14/04:00pm 18.8 7.0 11.9 64 3.8 W 65 83 35 45 1002.9 1002.9 0.0
14/03:30pm 19.0 8.4 11.8 63 4.0 W 59 82 32 44 1002.5 1002.5 0.0
14/03:14pm 19.4 9.2 11.9 62 4.2 W 57 76 31 41 1002.1 1002.1 0.0
14/03:00pm 19.2 7.5 12.0 63 4.0 W 65 80 35 43 1001.9 1001.9 0.0
14/02:46pm 19.4 7.5 11.4 60 4.4 W 65 83 35 45 1001.5 1001.5 0.0
14/02:30pm 19.4 8.4 11.9 62 4.2 W 61 76 33 41 1001.3 1001.3 0.0
14/02:00pm 18.9 7.4 11.5 62 4.1 W 63 83 34 45 1000.8 1000.8 0.0
14/01:30pm 18.4 7.4 11.9 66 3.6 W 61 80 33 43 1000.2 1000.2 0.0
14/01:08pm 18.9 8.5 12.6 67 3.5 W 59 80 32 43 1000.2 1000.2 0.0
14/01:00pm 18.5 7.7 12.5 68 3.4 W 61 78 33 42 1000.1 1000.1 0.0
14/12:30pm 19.2 7.9 12.0 63 4.0 W 63 87 34 47 1000.2 1000.2 0.0
14/12:00pm 17.5 7.6 12.4 72 2.8 W 56 74 30 40 1000.0 1000.0 0.0
14/11:30am 18.1 8.6 12.3 69 3.2 W 54 72 29 39 1000.1 1000.1 0.0
14/11:00am 16.9 6.0 11.0 68 3.2 W 59 78 32 42 1000.1 1000.1 0.0
14/10:30am 17.8 7.7 11.8 68 3.3 W 56 74 30 40 1000.0 1000.0 0.0
14/10:00am 16.3 6.1 11.9 75 2.4 W 57 80 31 43 1000.2 1000.2 0.0
14/09:30am 17.3 6.0 10.7 65 3.5 W 61 87 33 47 1000.2 1000.2 0.0
14/09:25am 17.4 7.7 11.9 70 3.0 W 54 78 29 42 1000.1 1000.1 0.0
14/09:00am 17.2 6.8 11.2 68 3.3 W 57 74 31 40 1000.1 1000.1 1.2
14/08:48am 17.2 8.8 11.0 67 3.3 W 46 67 25 36 1000.0 1000.0 1.2
14/08:30am 16.7 8.5 11.6 72 2.8 WNW 46 57 25 31 999.9 999.9 1.2
14/08:01am 17.0 8.5 10.6 66 3.4 W 46 65 25 35 999.6 999.6 1.2
14/08:00am 17.0 8.4 10.4 65 3.5 W 46 59 25 32 999.5 999.5 1.2
14/07:52am 17.1 8.6 10.7 66 3.4 W 46 65 25 35 999.6 999.6 1.2
14/07:30am 17.0 7.8 10.8 67 3.3 W 50 63 27 34 999.4 999.4 1.2
14/07:00am 16.5 7.1 10.1 66 3.4 W 50 72 27 39 999.0 999.0 1.2
14/06:30am 16.6 6.7 11.1 70 3.0 W 54 72 29 39 998.7 998.7 1.2
14/06:02am 16.7 7.2 11.0 69 3.1 W 52 70 28 38 998.2 998.2 1.2
14/06:00am 16.7 6.8 11.0 69 3.1 W 54 70 29 38 998.3 998.3 1.2
14/05:30am 16.5 7.9 11.6 73 2.7 W 48 69 26 37 998.1 998.1 1.2
14/05:00am 16.2 7.1 11.2 72 2.7 WNW 50 63 27 34 998.0 998.0 1.2
14/04:30am 15.5 6.4 11.3 76 2.3 W 50 70 27 38 997.7 997.7 1.2
14/04:21am 16.4 7.0 11.6 73 2.6 W 52 70 28 38 997.5 997.5 1.2
14/04:00am 15.9 6.8 11.3 74 2.5 WNW 50 67 27 36 997.4 997.4 1.2
14/03:45am 16.2 6.4 11.6 74 2.5 WNW 54 78 29 42 997.4 997.4 1.2
14/03:30am 16.8 8.0 10.9 68 3.2 WNW 48 63 26 34 997.3 997.3 1.2
14/03:00am 16.6 7.4 10.9 69 3.1 WNW 50 63 27 34 997.6 997.6 1.2
14/02:30am 16.8 8.7 12.1 74 2.6 W 46 61 25 33 997.7 997.7 1.2
14/02:09am 16.9 8.5 11.2 69 3.1 W 46 65 25 35 998.0 998.0 1.2
14/02:00am 16.9 8.0 11.8 72 2.8 W 50 63 27 34 998.1 998.1 1.2
14/01:37am 16.8 9.0 11.9 73 2.7 W 44 67 24 36 998.2 998.2 1.2
14/01:30am 16.9 9.4 12.6 76 2.4 WNW 44 61 24 33 998.3 998.3 1.2
14/01:04am 17.1 9.6 12.0 72 2.8 WNW 43 61 23 33 998.4 998.4 1.2
14/01:00am 17.1 9.3 11.8 71 2.9 W 44 61 24 33 998.4 998.4 1.2
14/12:30am 16.8 8.7 11.9 73 2.7 W 46 61 25 33 998.6 998.6 1.2
14/12:17am 16.9 8.3 11.6 71 2.9 W 48 67 26 36 998.6 998.6 1.2
14/12:00am 17.0 8.2 12.1 73 2.7 WNW 50 67 27 36 998.7 998.7 1.2
 
Date/Time
EDT
Temp
°C
App
Temp
°C
Dew
Point
°C
Rel
Hum
%
Delta-T
°C
Wind Press
QNH
hPa
Press
MSL
hPa
Rain since
9am
mm
Dir  Spd
km/h
Gust
km/h
Spd
kts
Gust
kts
13/11:41pm 17.2 8.4 12.1 72 2.8 WNW 50 72 27 39 998.6 998.6 1.2
13/11:30pm 17.3 8.5 12.2 72 2.8 WNW 50 67 27 36 998.6 998.6 1.2
13/11:00pm 17.3 9.5 13.0 76 2.4 WNW 46 65 25 35 998.5 998.5 1.2
13/10:42pm 17.5 10.9 13.6 78 2.2 WNW 41 59 22 32 998.3 998.3 1.2
13/10:30pm 17.2 10.7 12.9 76 2.4 WNW 39 56 21 30 998.3 998.3 1.2
13/10:00pm 17.2 9.7 12.7 75 2.5 WNW 44 59 24 32 998.0 998.0 1.2

Other Formats:

Comma delimited format used in spreadsheet applications
http://www.bom.gov.au/fwo/IDT60801/IDT60801.94980.axf

JavaScript Object Notation format (JSON) in row-major order
http://www.bom.gov.au/fwo/IDT60801/IDT60801.94980.json